createdAt,value
2022-08-17T00:00:42.580Z,23.88
2022-08-17T00:03:28.102Z,20.77
2022-08-17T00:06:22.660Z,29.98
2022-08-17T00:08:58.268Z,20.58
2022-08-17T00:11:33.924Z,26.50
2022-08-17T00:14:07.315Z,24.00
2022-08-17T00:16:55.544Z,35.28
2022-08-17T00:19:25.817Z,33.97
2022-08-17T00:22:30.857Z,38.97
2022-08-17T00:24:44.979Z,32.38
2022-08-17T00:27:12.576Z,44.75
2022-08-17T00:29:40.686Z,37.35
2022-08-17T00:33:14.542Z,37.80
2022-08-17T00:34:55.927Z,29.67
2022-08-17T00:37:27.801Z,33.55
2022-08-17T00:39:55.546Z,36.80
2022-08-17T00:42:26.403Z,29.13
2022-08-17T00:44:58.379Z,27.45
2022-08-17T00:47:28.985Z,32.50
2022-08-17T00:49:56.562Z,36.38
2022-08-17T00:52:27.773Z,36.83
2022-08-17T00:54:56.113Z,33.28
2022-08-17T00:57:26.660Z,40.80
2022-08-17T01:00:03.125Z,39.25
2022-08-17T01:02:41.248Z,34.97
2022-08-17T01:05:18.407Z,33.28
2022-08-17T01:07:47.165Z,35.75
2022-08-17T01:10:58.195Z,25.98
2022-08-17T01:13:03.120Z,30.25
2022-08-17T01:15:31.858Z,25.80
2022-08-17T01:18:00.396Z,32.85
2022-08-17T01:20:28.194Z,25.10
2022-08-17T01:22:55.922Z,30.13
2022-08-17T01:25:23.560Z,30.77
2022-08-17T01:27:51.788Z,27.77
2022-08-17T01:30:56.813Z,25.35
2022-08-17T01:33:11.546Z,29.20
2022-08-17T01:35:39.639Z,24.35
2022-08-17T01:38:07.850Z,26.38
2022-08-17T01:40:39.220Z,30.75
2022-08-17T01:43:29.873Z,26.45
2022-08-17T01:46:03.451Z,28.30
2022-08-17T01:48:35.638Z,27.38
2022-08-17T01:51:04.415Z,24.77
2022-08-17T01:53:35.494Z,38.03
2022-08-17T01:56:07.758Z,27.85
2022-08-17T01:58:36.473Z,31.38
2022-08-17T02:01:04.749Z,32.10
2022-08-17T02:03:35.747Z,29.50
2022-08-17T02:06:05.826Z,28.40
2022-08-17T02:09:01.765Z,27.90
2022-08-17T02:11:33.875Z,30.10
2022-08-17T02:14:04.046Z,33.92
2022-08-17T02:16:37.088Z,26.92
2022-08-17T02:19:09.002Z,24.00
2022-08-17T02:21:38.183Z,23.35
2022-08-17T02:24:08.024Z,36.38
2022-08-17T02:26:36.108Z,23.17
2022-08-17T02:29:04.370Z,28.67
2022-08-17T02:31:31.967Z,35.63
2022-08-17T02:34:04.005Z,27.70
2022-08-17T02:36:35.654Z,26.15
2022-08-17T02:39:04.708Z,37.30
2022-08-17T02:41:32.446Z,29.30
2022-08-17T02:44:00.291Z,30.65
2022-08-17T02:46:28.475Z,26.40
2022-08-17T02:48:56.220Z,22.95
2022-08-17T02:51:23.886Z,30.92
2022-08-17T02:53:51.607Z,24.17
2022-08-17T02:56:19.290Z,25.98
2022-08-17T02:58:46.890Z,20.77
2022-08-17T03:01:14.745Z,25.88
2022-08-17T03:03:42.416Z,25.42
2022-08-17T03:06:10.210Z,24.98
2022-08-17T03:08:38.363Z,28.33
2022-08-17T03:11:06.004Z,21.65
2022-08-17T03:13:34.229Z,30.75
2022-08-17T03:16:01.968Z,24.05
2022-08-17T03:18:29.653Z,24.95
2022-08-17T03:21:00.657Z,23.35
2022-08-17T03:23:29.725Z,25.40
2022-08-17T03:25:58.141Z,19.63
2022-08-17T03:28:25.777Z,19.95
2022-08-17T03:30:53.475Z,19.67
2022-08-17T03:33:21.348Z,22.48
2022-08-17T03:35:49.060Z,20.85
2022-08-17T03:38:17.584Z,20.08
2022-08-17T03:40:57.031Z,24.85
2022-08-17T03:43:30.895Z,18.83
2022-08-17T03:46:34.759Z,21.05
2022-08-17T03:49:23.097Z,21.40
2022-08-17T03:52:09.092Z,21.88
2022-08-17T03:54:55.517Z,23.48
2022-08-17T03:57:23.116Z,19.13
2022-08-17T03:59:51.177Z,21.55
2022-08-17T04:02:22.567Z,19.05
2022-08-17T04:04:51.171Z,14.73
2022-08-17T04:07:22.925Z,20.30
2022-08-17T04:09:50.803Z,22.88
2022-08-17T04:12:20.037Z,23.60
2022-08-17T04:14:47.826Z,23.50
2022-08-17T04:17:27.060Z,15.95
2022-08-17T04:19:54.874Z,18.92
2022-08-17T04:22:31.262Z,17.35
2022-08-17T04:25:07.636Z,18.40
2022-08-17T04:27:36.341Z,18.38
2022-08-17T04:30:04.554Z,20.75
2022-08-17T04:33:02.264Z,18.35
2022-08-17T04:35:22.789Z,18.67
2022-08-17T04:37:50.894Z,21.73
2022-08-17T04:40:37.890Z,21.73
2022-08-17T04:43:18.590Z,24.52
2022-08-17T04:45:55.302Z,16.70
2022-08-17T04:48:29.686Z,19.10
2022-08-17T04:51:10.209Z,17.95
2022-08-17T04:53:39.813Z,20.58
2022-08-17T04:56:08.118Z,20.92
2022-08-17T04:58:45.302Z,22.80
2022-08-17T05:01:13.194Z,18.83
2022-08-17T05:03:41.986Z,19.77
2022-08-17T05:06:09.662Z,18.77
2022-08-17T05:08:37.358Z,27.38
2022-08-17T05:11:05.648Z,19.13
2022-08-17T05:13:33.453Z,21.27
2022-08-17T05:16:02.599Z,17.75
2022-08-17T05:18:30.476Z,23.92
2022-08-17T05:20:58.655Z,20.52
2022-08-17T05:23:27.239Z,19.60
2022-08-17T05:26:06.251Z,22.10
2022-08-17T05:28:37.862Z,22.17
2022-08-17T05:31:05.714Z,16.60
2022-08-17T05:33:35.418Z,23.90
2022-08-17T05:36:04.033Z,23.90
2022-08-17T05:38:32.478Z,20.92
2022-08-17T05:41:01.893Z,24.35
2022-08-17T05:43:31.790Z,21.63
2022-08-17T05:46:23.809Z,19.52
2022-08-17T05:49:11.763Z,25.23
2022-08-17T05:52:08.808Z,25.40
2022-08-17T05:54:47.353Z,21.05
2022-08-17T05:57:24.632Z,26.10
2022-08-17T06:00:11.730Z,28.25
2022-08-17T06:03:00.832Z,28.40
2022-08-17T06:06:01.625Z,23.08
2022-08-17T06:11:21.021Z,27.48
2022-08-17T06:14:09.445Z,28.35
2022-08-17T06:16:41.301Z,25.33
2022-08-17T06:19:16.300Z,29.20
2022-08-17T06:21:46.642Z,27.10
2022-08-17T06:24:23.828Z,33.73
2022-08-17T06:26:51.576Z,32.28
2022-08-17T06:29:39.187Z,23.83
2022-08-17T06:32:08.707Z,29.63
2022-08-17T06:34:37.863Z,25.65
2022-08-17T06:37:21.403Z,26.60
2022-08-17T06:40:16.235Z,31.25
2022-08-17T06:43:00.851Z,30.45
2022-08-17T06:45:54.487Z,29.03
2022-08-17T06:48:26.039Z,30.60
2022-08-17T06:51:00.370Z,29.90
2022-08-17T06:53:32.345Z,29.00
2022-08-17T06:56:13.800Z,30.83
2022-08-17T06:58:43.531Z,33.05
2022-08-17T07:01:15.041Z,31.23
2022-08-17T07:04:21.958Z,28.55
2022-08-17T07:06:57.281Z,29.20
2022-08-17T07:09:28.964Z,25.85
2022-08-17T07:11:59.858Z,30.35
2022-08-17T07:14:32.096Z,24.20
2022-08-17T07:17:02.148Z,26.15
2022-08-17T07:19:32.154Z,21.50
2022-08-17T07:22:06.021Z,25.38
2022-08-17T07:24:35.702Z,23.60
2022-08-17T07:27:04.488Z,24.63
2022-08-17T07:29:40.790Z,21.58
2022-08-17T07:32:09.066Z,23.60
2022-08-17T07:35:01.637Z,17.02
2022-08-17T07:37:32.543Z,19.15
2022-08-17T07:40:16.409Z,24.45
2022-08-17T07:43:01.214Z,26.58
2022-08-17T07:45:49.241Z,22.63
2022-08-17T07:48:24.259Z,15.98
2022-08-17T07:50:53.418Z,18.30
2022-08-17T07:53:25.139Z,23.48
2022-08-17T07:55:53.409Z,22.00
2022-08-17T07:58:23.632Z,20.85
2022-08-17T08:01:11.901Z,22.13
2022-08-17T08:03:42.811Z,23.73
2022-08-17T08:06:25.097Z,16.48
2022-08-17T08:08:55.077Z,19.17
2022-08-17T08:11:31.442Z,18.88
2022-08-17T08:14:29.521Z,14.35
2022-08-17T08:17:04.139Z,17.42
2022-08-17T08:19:34.065Z,18.92
2022-08-17T08:22:08.015Z,20.40
2022-08-17T08:25:01.506Z,16.42
2022-08-17T08:27:35.747Z,19.58
2022-08-17T08:30:10.482Z,19.02
2022-08-17T08:32:46.652Z,21.17
2022-08-17T08:35:26.801Z,21.85
2022-08-17T08:38:29.445Z,19.67
2022-08-17T08:41:22.174Z,23.20
2022-08-17T08:44:10.150Z,18.38
2022-08-17T08:47:03.436Z,21.90
2022-08-17T08:50:08.881Z,20.38
2022-08-17T08:53:02.527Z,24.15
2022-08-17T08:55:52.818Z,26.63
2022-08-17T08:58:42.046Z,26.25
2022-08-17T09:01:57.642Z,17.77
2022-08-17T09:04:27.809Z,23.10
2022-08-17T09:06:58.246Z,23.65
2022-08-17T09:09:25.764Z,22.17
2022-08-17T09:12:14.562Z,22.35
2022-08-17T09:14:59.653Z,19.55
2022-08-17T09:17:47.517Z,22.55
2022-08-17T09:20:14.985Z,21.58
2022-08-17T09:25:28.514Z,28.02
2022-08-17T09:28:00.619Z,19.95
2022-08-17T09:30:36.416Z,20.15
2022-08-17T09:33:07.291Z,20.15
2022-08-17T09:36:02.732Z,18.63
2022-08-17T09:38:57.425Z,18.27
2022-08-17T09:41:49.467Z,19.83
2022-08-17T09:44:29.234Z,18.80
2022-08-17T09:47:16.121Z,18.27
2022-08-17T09:49:49.017Z,17.40
2022-08-17T09:52:26.549Z,16.33
2022-08-17T09:54:55.176Z,16.60
2022-08-17T09:57:38.990Z,13.50
2022-08-17T10:00:13.343Z,15.68
2022-08-17T10:03:18.119Z,16.08
2022-08-17T10:06:21.716Z,11.10
2022-08-17T10:09:07.525Z,12.32
2022-08-17T10:12:17.179Z,16.35
2022-08-17T10:15:09.972Z,14.13
2022-08-17T10:18:10.324Z,11.38
2022-08-17T10:20:44.144Z,14.70
2022-08-17T10:23:33.873Z,17.83
2022-08-17T10:26:24.116Z,18.55
2022-08-17T10:29:09.631Z,14.63
2022-08-17T10:32:08.803Z,11.88
2022-08-17T10:35:13.171Z,12.60
2022-08-17T10:38:00.260Z,13.75
2022-08-17T10:40:49.171Z,13.93
2022-08-17T10:43:34.933Z,15.32
2022-08-17T10:46:33.701Z,16.42
2022-08-17T10:49:36.175Z,14.50
2022-08-17T10:52:19.717Z,13.15
2022-08-17T10:54:58.101Z,15.63
2022-08-17T10:57:32.217Z,16.35
2022-08-17T11:00:35.287Z,13.68
2022-08-17T11:03:03.305Z,16.95
2022-08-17T11:05:54.265Z,17.92
2022-08-17T11:11:20.321Z,16.70
2022-08-17T11:14:14.385Z,17.55
2022-08-17T11:17:07.546Z,15.68
2022-08-17T11:20:14.268Z,15.10
2022-08-17T11:22:55.800Z,13.32
2022-08-17T11:25:42.075Z,13.57
2022-08-17T11:28:14.472Z,13.35
2022-08-17T11:30:47.074Z,21.77
2022-08-17T11:33:38.039Z,14.55
2022-08-17T11:36:34.375Z,12.57
2022-08-17T11:39:06.807Z,15.18
2022-08-17T11:42:07.540Z,18.17
2022-08-17T11:44:57.598Z,14.85
2022-08-17T11:48:09.458Z,16.90
2022-08-17T11:51:06.574Z,15.23
2022-08-17T11:53:40.091Z,17.17
2022-08-17T11:56:32.354Z,17.75
2022-08-17T11:59:00.993Z,12.70
2022-08-17T12:01:31.686Z,15.02
2022-08-17T12:04:19.927Z,11.60
2022-08-17T12:07:09.274Z,19.05
2022-08-17T12:09:39.623Z,16.23
2022-08-17T12:12:14.719Z,15.98
2022-08-17T12:15:11.407Z,17.45
2022-08-17T12:17:42.617Z,18.23
2022-08-17T12:20:24.276Z,16.73
2022-08-17T12:23:12.945Z,17.73
2022-08-17T12:25:51.788Z,17.95
2022-08-17T12:28:33.371Z,17.58
2022-08-17T12:31:04.299Z,15.23
2022-08-17T12:36:05.126Z,17.50
2022-08-17T12:38:34.876Z,18.95
2022-08-17T12:41:23.968Z,22.65
2022-08-17T12:44:03.228Z,18.55
2022-08-17T12:47:05.180Z,20.10
2022-08-17T12:49:35.749Z,18.02
2022-08-17T12:52:07.896Z,15.55
2022-08-17T12:54:47.787Z,18.23
2022-08-17T12:57:21.019Z,19.30
2022-08-17T13:00:04.410Z,21.50
2022-08-17T13:02:40.311Z,21.60
2022-08-17T13:05:17.944Z,22.40
2022-08-17T13:07:48.055Z,23.83
2022-08-17T13:10:35.643Z,17.73
2022-08-17T13:13:06.079Z,22.65
2022-08-17T13:15:54.281Z,16.73
2022-08-17T13:18:48.848Z,20.80
2022-08-17T13:21:28.294Z,22.80
2022-08-17T13:24:00.471Z,23.02
2022-08-17T13:26:51.367Z,24.80
2022-08-17T13:32:04.714Z,25.15
2022-08-17T13:35:12.454Z,21.80
2022-08-17T13:37:34.543Z,23.95
2022-08-17T13:40:08.125Z,22.48
2022-08-17T13:42:50.411Z,23.00
2022-08-17T13:45:39.615Z,23.33
2022-08-17T13:48:07.458Z,24.23
2022-08-17T13:50:40.338Z,23.15
2022-08-17T13:53:31.559Z,23.35
2022-08-17T13:56:38.849Z,23.52
2022-08-17T13:59:00.310Z,22.10
2022-08-17T14:01:52.777Z,22.80
2022-08-17T14:04:24.117Z,22.38
2022-08-17T14:06:56.459Z,24.42
2022-08-17T14:09:31.418Z,29.35
2022-08-17T14:12:03.262Z,27.67
2022-08-17T14:14:30.968Z,29.88
2022-08-17T14:16:58.602Z,29.13
2022-08-17T14:19:26.452Z,27.85
2022-08-17T14:21:59.142Z,22.77
2022-08-17T14:24:33.202Z,29.88
2022-08-17T14:27:01.424Z,29.67
2022-08-17T14:29:48.142Z,29.45
2022-08-17T14:32:23.173Z,26.85
2022-08-17T14:34:53.462Z,28.45
2022-08-17T14:37:38.442Z,29.80
2022-08-17T14:40:11.542Z,27.10
2022-08-17T14:42:40.406Z,28.38
2022-08-17T14:45:32.324Z,30.95
2022-08-17T14:47:56.815Z,25.83
2022-08-17T14:50:25.215Z,22.58
2022-08-17T14:52:56.429Z,23.40
2022-08-17T14:55:26.575Z,28.20
2022-08-17T14:57:54.154Z,27.05
2022-08-17T15:00:22.050Z,27.02
2022-08-17T15:02:54.648Z,24.33
2022-08-17T15:05:23.702Z,25.65
2022-08-17T15:07:53.611Z,24.52
2022-08-17T15:10:21.438Z,28.95
2022-08-17T15:12:49.304Z,26.52
2022-08-17T15:15:18.866Z,22.15
2022-08-17T15:17:46.597Z,19.88
2022-08-17T15:20:16.284Z,18.38
2022-08-17T15:22:44.513Z,16.88
2022-08-17T15:25:12.765Z,17.17
2022-08-17T15:27:40.603Z,15.85
2022-08-17T15:30:09.031Z,17.40
2022-08-17T15:32:38.447Z,15.07
2022-08-17T15:35:06.937Z,19.73
2022-08-17T15:37:34.787Z,24.52
2022-08-17T15:40:02.608Z,15.50
2022-08-17T15:42:30.541Z,15.82
2022-08-17T15:45:00.052Z,20.05
2022-08-17T15:47:27.848Z,17.98
2022-08-17T15:49:59.925Z,16.45
2022-08-17T15:52:29.861Z,17.77
2022-08-17T15:54:58.952Z,20.75
2022-08-17T15:57:26.990Z,19.05
2022-08-17T15:59:58.803Z,22.77
2022-08-17T16:03:15.061Z,23.08
2022-08-17T16:05:19.929Z,18.80
2022-08-17T16:07:49.193Z,16.45
2022-08-17T16:10:19.192Z,20.75
2022-08-17T16:12:48.094Z,21.80
2022-08-17T16:15:16.345Z,21.35
2022-08-17T16:17:44.459Z,17.80
2022-08-17T16:20:20.120Z,15.32
2022-08-17T16:22:49.526Z,20.60
2022-08-17T16:25:23.067Z,18.88
2022-08-17T16:28:10.785Z,18.80
2022-08-17T16:30:38.844Z,22.10
2022-08-17T16:33:06.496Z,26.00
2022-08-17T16:35:34.363Z,22.45
2022-08-17T16:38:02.909Z,23.13
2022-08-17T16:40:35.718Z,21.52
2022-08-17T16:43:07.204Z,17.60
2022-08-17T16:45:40.682Z,21.15
2022-08-17T16:48:09.589Z,21.55
2022-08-17T16:50:37.398Z,23.58
2022-08-17T16:53:09.210Z,22.58
2022-08-17T16:55:37.720Z,21.60
2022-08-17T16:58:05.797Z,20.98
2022-08-17T17:00:36.313Z,21.27
2022-08-17T17:03:19.193Z,30.23
2022-08-17T17:06:22.376Z,23.23
2022-08-17T17:09:01.025Z,21.58
2022-08-17T17:11:42.082Z,22.48
2022-08-17T17:14:11.826Z,22.73
2022-08-17T17:17:03.547Z,25.60
2022-08-17T17:19:38.469Z,24.30
2022-08-17T17:22:25.477Z,25.13
2022-08-17T17:25:18.159Z,24.10
2022-08-17T17:27:56.295Z,28.60
2022-08-17T17:30:24.894Z,21.70
2022-08-17T17:32:56.079Z,30.08
2022-08-17T17:35:34.232Z,30.55
2022-08-17T17:38:06.572Z,26.73
2022-08-17T17:40:40.564Z,26.13
2022-08-17T17:43:35.258Z,37.42
2022-08-17T17:46:38.049Z,29.03
2022-08-17T17:49:06.332Z,24.77
2022-08-17T17:52:06.888Z,29.33
2022-08-17T17:55:03.005Z,27.00
2022-08-17T17:57:47.060Z,27.58
2022-08-17T18:00:24.727Z,28.13
2022-08-17T18:03:13.356Z,34.40
2022-08-17T18:05:47.765Z,26.65
2022-08-17T18:08:34.831Z,27.58
2022-08-17T18:11:24.534Z,27.25
2022-08-17T18:14:15.576Z,27.85
2022-08-17T18:16:43.745Z,30.10
2022-08-17T18:19:15.388Z,30.40
2022-08-17T18:21:46.032Z,26.25
2022-08-17T18:24:13.957Z,25.40
2022-08-17T18:26:54.201Z,30.52
2022-08-17T18:32:22.485Z,23.08
2022-08-17T18:35:03.764Z,21.83
2022-08-17T18:37:45.268Z,21.98
2022-08-17T18:43:14.404Z,22.55
2022-08-17T18:45:46.255Z,21.65
2022-08-17T18:48:36.978Z,21.30
2022-08-17T18:51:42.060Z,24.60
2022-08-17T18:54:17.057Z,21.00
2022-08-17T18:57:00.501Z,24.40
2022-08-17T18:59:42.535Z,24.17
2022-08-17T19:02:38.756Z,22.60
2022-08-17T19:05:13.751Z,21.92
2022-08-17T19:07:44.513Z,24.35
2022-08-17T19:10:46.249Z,24.40
2022-08-17T19:13:24.184Z,24.48
2022-08-17T19:16:07.923Z,21.80
2022-08-17T19:18:48.489Z,20.83
2022-08-17T19:21:23.193Z,22.45
2022-08-17T19:24:05.757Z,22.38
2022-08-17T19:26:54.499Z,19.67
2022-08-17T19:29:30.390Z,21.10
2022-08-17T19:31:58.893Z,22.77
2022-08-17T19:34:33.184Z,24.33
2022-08-17T19:37:38.789Z,22.13
2022-08-17T19:40:51.576Z,28.52
2022-08-17T19:43:31.280Z,21.30
2022-08-17T19:46:19.351Z,108.15
2022-08-17T19:48:58.999Z,76.38
2022-08-17T19:52:05.137Z,84.50
2022-08-17T19:55:24.657Z,65.25
2022-08-17T19:58:00.857Z,60.03
2022-08-17T20:00:28.687Z,65.10
2022-08-17T20:03:16.778Z,79.28
2022-08-17T20:06:11.659Z,82.22
2022-08-17T20:08:43.877Z,92.18
2022-08-17T20:11:17.513Z,79.10
2022-08-17T20:14:09.730Z,69.97
2022-08-17T20:16:37.366Z,52.38
2022-08-17T20:19:27.886Z,41.35
2022-08-17T20:22:15.670Z,58.60
2022-08-17T20:25:08.569Z,37.17
2022-08-17T20:27:51.191Z,40.70
2022-08-17T20:30:39.200Z,35.00
2022-08-17T20:33:33.069Z,33.50
2022-08-17T20:36:20.713Z,27.75
2022-08-17T20:38:48.329Z,30.67
2022-08-17T20:41:23.592Z,26.88
2022-08-17T20:43:57.296Z,33.25
2022-08-17T20:46:37.596Z,31.30
2022-08-17T20:49:14.638Z,35.83
2022-08-17T20:52:00.778Z,25.60
2022-08-17T20:54:42.095Z,29.88
2022-08-17T20:57:14.033Z,30.38
2022-08-17T20:59:42.511Z,32.22
2022-08-17T21:02:19.544Z,37.95
2022-08-17T21:04:50.123Z,30.20
2022-08-17T21:07:33.149Z,35.70
2022-08-17T21:10:26.366Z,34.38
2022-08-17T21:13:13.800Z,41.20
2022-08-17T21:15:52.568Z,39.90
2022-08-17T21:18:46.711Z,38.00
2022-08-17T21:21:30.388Z,41.65
2022-08-17T21:24:07.231Z,42.50
2022-08-17T21:26:50.762Z,39.42
2022-08-17T21:29:32.286Z,39.60
2022-08-17T21:32:05.405Z,37.42
2022-08-17T21:34:34.456Z,32.85
2022-08-17T21:37:20.590Z,31.90
2022-08-17T21:40:19.905Z,38.10
2022-08-17T21:42:54.124Z,35.08
2022-08-17T21:45:35.248Z,37.55
2022-08-17T21:48:14.520Z,49.72
2022-08-17T21:50:57.345Z,35.30
2022-08-17T21:53:34.073Z,36.85
2022-08-17T21:56:01.841Z,41.05
2022-08-17T21:58:35.061Z,49.15
2022-08-17T22:01:23.841Z,37.13
2022-08-17T22:03:56.538Z,37.17
2022-08-17T22:06:34.569Z,42.20
2022-08-17T22:09:07.348Z,48.90
2022-08-17T22:11:52.726Z,40.30
2022-08-17T22:14:22.939Z,47.55
2022-08-17T22:17:18.423Z,40.53
2022-08-17T22:19:59.118Z,48.97
2022-08-17T22:22:55.862Z,57.03
2022-08-17T22:25:24.423Z,123.80
2022-08-17T22:27:55.666Z,48.55
2022-08-17T22:30:42.219Z,46.20
2022-08-17T22:33:28.940Z,67.43
2022-08-17T22:36:23.202Z,56.05
2022-08-17T22:38:55.873Z,61.13
2022-08-17T22:41:35.839Z,65.00
2022-08-17T22:44:17.391Z,52.75
2022-08-17T22:47:11.591Z,56.97
2022-08-17T22:49:54.027Z,49.10
2022-08-17T22:53:13.688Z,49.55
2022-08-17T22:56:10.005Z,53.03
2022-08-17T22:59:09.701Z,50.75
2022-08-17T23:01:39.251Z,49.67
2022-08-17T23:04:10.132Z,50.50
2022-08-17T23:06:40.260Z,46.75
2022-08-17T23:09:07.974Z,50.30
2022-08-17T23:11:48.908Z,58.40
2022-08-17T23:14:19.339Z,55.20
2022-08-17T23:16:48.838Z,50.78
2022-08-17T23:19:18.771Z,48.13
2022-08-17T23:21:46.959Z,46.65
2022-08-17T23:24:25.989Z,49.65
2022-08-17T23:26:54.572Z,49.33
2022-08-17T23:29:22.702Z,53.38
2022-08-17T23:31:51.228Z,61.38
2022-08-17T23:34:19.158Z,62.28
2022-08-17T23:36:52.402Z,55.28
2022-08-17T23:39:27.395Z,47.65
2022-08-17T23:41:59.812Z,52.03
2022-08-17T23:44:27.869Z,57.33
2022-08-17T23:46:55.583Z,51.95
2022-08-17T23:49:25.328Z,65.80
2022-08-17T23:51:55.944Z,60.97
2022-08-17T23:54:23.518Z,57.70
2022-08-17T23:56:51.315Z,54.30
2022-08-17T23:59:19.864Z,52.88
